createdAt,value
2017-11-03T00:00:50.448Z,8.30
2017-11-03T00:03:19.911Z,8.20
2017-11-03T00:05:48.599Z,8.20
2017-11-03T00:08:17.273Z,8.30
2017-11-03T00:10:45.969Z,8.30
2017-11-03T00:13:14.638Z,8.40
2017-11-03T00:15:43.314Z,8.40
2017-11-03T00:18:12.010Z,8.40
2017-11-03T00:20:40.685Z,8.40
2017-11-03T00:23:09.364Z,8.40
2017-11-03T00:25:38.072Z,8.50
2017-11-03T00:28:06.759Z,8.50
2017-11-03T00:30:35.451Z,8.60
2017-11-03T00:33:04.138Z,8.70
2017-11-03T00:35:32.813Z,8.70
2017-11-03T00:38:01.491Z,8.80
2017-11-03T00:40:30.170Z,8.80
2017-11-03T00:42:58.841Z,8.80
2017-11-03T00:45:28.546Z,8.70
2017-11-03T00:47:57.223Z,8.70
2017-11-03T00:50:25.885Z,8.70
2017-11-03T00:52:54.587Z,8.70
2017-11-03T00:55:23.253Z,8.60
2017-11-03T00:57:51.923Z,8.70
2017-11-03T01:00:20.615Z,8.70
2017-11-03T01:02:49.281Z,8.70
2017-11-03T01:05:17.943Z,8.70
2017-11-03T01:07:46.455Z,8.80
2017-11-03T01:10:15.123Z,8.80
2017-11-03T01:12:44.555Z,8.80
2017-11-03T01:15:13.026Z,8.80
2017-11-03T01:17:41.696Z,8.80
2017-11-03T01:20:11.130Z,8.80
2017-11-03T01:22:39.844Z,8.80
2017-11-03T01:25:08.522Z,8.80
2017-11-03T01:27:37.191Z,8.70
2017-11-03T01:30:05.879Z,8.70
2017-11-03T01:32:34.604Z,8.80
2017-11-03T01:35:02.944Z,8.90
2017-11-03T01:37:31.607Z,8.80
2017-11-03T01:40:00.333Z,8.80
2017-11-03T01:42:29.006Z,8.90
2017-11-03T01:44:57.677Z,8.90
2017-11-03T01:47:26.355Z,8.90
2017-11-03T01:49:55.022Z,9.00
2017-11-03T01:52:23.773Z,9.10
2017-11-03T01:54:52.457Z,9.10
2017-11-03T01:57:21.142Z,9.30
2017-11-03T01:59:49.837Z,9.50
2017-11-03T02:02:18.500Z,9.70
2017-11-03T02:04:46.962Z,10.00
2017-11-03T02:07:15.384Z,10.20
2017-11-03T02:09:44.559Z,10.60
2017-11-03T02:12:12.987Z,10.60
2017-11-03T02:14:41.382Z,10.80
2017-11-03T02:17:10.049Z,10.80
2017-11-03T02:19:37.796Z,10.90
2017-11-03T02:22:05.520Z,11.00
2017-11-03T02:24:33.941Z,11.00
2017-11-03T02:27:02.389Z,11.10
2017-11-03T02:29:31.821Z,11.10
2017-11-03T02:32:00.999Z,11.10
2017-11-03T02:34:29.096Z,11.10
2017-11-03T02:36:58.281Z,11.10
2017-11-03T02:39:26.690Z,11.10
2017-11-03T02:41:55.135Z,11.10
2017-11-03T02:44:22.853Z,11.10
2017-11-03T02:46:51.278Z,11.10
2017-11-03T02:49:19.697Z,11.10
2017-11-03T02:51:48.100Z,11.00
2017-11-03T02:54:16.521Z,11.00
2017-11-03T02:56:44.939Z,11.10
2017-11-03T02:59:13.352Z,11.10
2017-11-03T03:01:41.787Z,11.10
2017-11-03T03:04:10.958Z,11.20
2017-11-03T03:06:39.363Z,11.10
2017-11-03T03:09:08.575Z,11.10
2017-11-03T03:11:36.988Z,11.10
2017-11-03T03:14:05.400Z,11.10
2017-11-03T03:16:33.862Z,11.10
2017-11-03T03:19:01.920Z,11.00
2017-11-03T03:21:30.330Z,11.10
2017-11-03T03:23:58.409Z,11.10
2017-11-03T03:26:26.621Z,11.20
2017-11-03T03:28:55.030Z,11.20
2017-11-03T03:31:23.468Z,11.20
2017-11-03T03:33:52.293Z,11.20
2017-11-03T03:36:20.712Z,11.20
2017-11-03T03:38:49.139Z,11.20
2017-11-03T03:41:17.550Z,11.20
2017-11-03T03:43:45.959Z,11.20
2017-11-03T03:46:14.064Z,11.20
2017-11-03T03:48:41.818Z,11.20
2017-11-03T03:51:10.990Z,11.10
2017-11-03T03:53:39.425Z,11.10
2017-11-03T03:56:07.497Z,11.20
2017-11-03T03:58:35.927Z,11.20
2017-11-03T04:01:04.342Z,11.20
2017-11-03T04:03:32.755Z,11.10
2017-11-03T04:06:01.191Z,11.10
2017-11-03T04:08:30.388Z,11.10
2017-11-03T04:10:58.866Z,11.10
2017-11-03T04:13:28.063Z,11.10
2017-11-03T04:15:57.250Z,11.20
2017-11-03T04:18:25.671Z,11.20
2017-11-03T04:20:54.092Z,11.10
2017-11-03T04:23:22.506Z,11.10
2017-11-03T04:25:51.011Z,11.20
2017-11-03T04:28:19.415Z,11.10
2017-11-03T04:30:47.483Z,11.20
2017-11-03T04:33:15.928Z,11.10
2017-11-03T04:35:45.117Z,11.10
2017-11-03T04:38:14.299Z,11.10
2017-11-03T04:40:44.034Z,11.10
2017-11-03T04:43:13.214Z,11.10
2017-11-03T04:45:40.932Z,11.10
2017-11-03T04:48:09.363Z,11.10
2017-11-03T04:50:37.780Z,11.00
2017-11-03T04:53:05.506Z,10.90
2017-11-03T04:55:33.616Z,10.70
2017-11-03T04:58:02.113Z,10.60
2017-11-03T05:00:30.522Z,10.50
2017-11-03T05:02:59.215Z,10.30
2017-11-03T05:05:27.662Z,10.20
2017-11-03T05:07:56.102Z,10.10
2017-11-03T05:10:25.279Z,10.00
2017-11-03T05:12:53.716Z,10.10
2017-11-03T05:15:22.128Z,10.10
2017-11-03T05:17:50.546Z,10.00
2017-11-03T05:20:19.779Z,9.80
2017-11-03T05:22:48.200Z,9.80
2017-11-03T05:25:16.608Z,9.70
2017-11-03T05:27:45.838Z,9.60
2017-11-03T05:30:14.244Z,9.60
2017-11-03T05:32:42.716Z,9.60
2017-11-03T05:35:10.455Z,9.50
2017-11-03T05:37:38.858Z,9.50
2017-11-03T05:40:06.918Z,9.50
2017-11-03T05:42:36.377Z,9.40
2017-11-03T05:45:05.213Z,9.40
2017-11-03T05:47:33.626Z,9.40
2017-11-03T05:50:02.341Z,9.30
2017-11-03T05:52:31.528Z,9.30
2017-11-03T05:54:59.856Z,9.30
2017-11-03T05:57:28.310Z,9.30
2017-11-03T05:59:57.487Z,9.30
2017-11-03T06:02:25.988Z,9.30
2017-11-03T06:04:54.903Z,9.30
2017-11-03T06:07:23.295Z,9.30
2017-11-03T06:09:52.730Z,9.30
2017-11-03T06:12:21.286Z,9.20
2017-11-03T06:14:49.799Z,9.30
2017-11-03T06:17:18.476Z,9.30
2017-11-03T06:19:47.190Z,9.30
2017-11-03T06:22:15.863Z,9.20
2017-11-03T06:24:44.521Z,9.20
2017-11-03T06:27:13.993Z,9.30
2017-11-03T06:29:42.668Z,9.30
2017-11-03T06:32:11.341Z,9.30
2017-11-03T06:34:40.032Z,9.30
2017-11-03T06:37:08.693Z,9.30
2017-11-03T06:39:37.012Z,9.30
2017-11-03T06:42:05.726Z,9.30
2017-11-03T06:44:35.189Z,9.30
2017-11-03T06:47:04.134Z,9.30
2017-11-03T06:49:32.817Z,9.40
2017-11-03T06:52:01.238Z,9.40
2017-11-03T06:54:29.925Z,9.60
2017-11-03T06:56:58.332Z,9.60
2017-11-03T06:59:26.809Z,9.80
2017-11-03T07:01:55.761Z,9.80
2017-11-03T07:04:24.444Z,9.90
2017-11-03T07:06:53.869Z,9.80
2017-11-03T07:09:22.300Z,9.90
2017-11-03T07:11:50.368Z,9.80
2017-11-03T07:14:19.034Z,9.90
2017-11-03T07:16:48.509Z,9.80
2017-11-03T07:19:16.942Z,9.90
2017-11-03T07:21:45.644Z,9.90
2017-11-03T07:24:14.092Z,10.00
2017-11-03T07:26:43.265Z,10.30
2017-11-03T07:29:11.669Z,10.30
2017-11-03T07:31:40.885Z,11.00
2017-11-03T07:34:09.369Z,11.00
2017-11-03T07:36:38.014Z,11.20
2017-11-03T07:39:06.453Z,11.30
2017-11-03T07:41:34.850Z,11.40
2017-11-03T07:44:03.259Z,11.50
2017-11-03T07:46:31.690Z,11.40
2017-11-03T07:49:00.113Z,11.50
2017-11-03T07:51:28.550Z,11.70
2017-11-03T07:53:57.006Z,12.00
2017-11-03T07:56:25.450Z,12.30
2017-11-03T07:58:53.560Z,12.60
2017-11-03T08:01:22.751Z,12.80
2017-11-03T08:03:51.992Z,12.90
2017-11-03T08:06:20.418Z,12.90
2017-11-03T08:08:48.839Z,13.00
2017-11-03T08:11:17.297Z,13.00
2017-11-03T08:13:46.483Z,13.20
2017-11-03T08:16:14.930Z,13.20
2017-11-03T08:18:43.370Z,13.10
2017-11-03T08:21:11.789Z,13.10
2017-11-03T08:23:40.436Z,13.00
2017-11-03T08:26:08.882Z,12.80
2017-11-03T08:28:37.325Z,13.00
2017-11-03T08:31:05.735Z,13.20
2017-11-03T08:33:34.603Z,13.70
2017-11-03T08:36:03.091Z,14.20
2017-11-03T08:38:31.526Z,14.70
2017-11-03T08:41:00.746Z,15.30
2017-11-03T08:43:29.197Z,15.30
2017-11-03T08:45:58.381Z,15.70
2017-11-03T08:48:26.814Z,15.70
2017-11-03T08:50:55.246Z,15.60
2017-11-03T08:53:23.652Z,15.50
2017-11-03T08:55:52.112Z,15.30
2017-11-03T08:58:20.529Z,15.10
2017-11-03T09:00:48.942Z,15.00
2017-11-03T09:03:17.389Z,14.90
2017-11-03T09:05:45.800Z,14.50
2017-11-03T09:08:13.877Z,14.50
2017-11-03T09:10:42.342Z,14.50
2017-11-03T09:13:10.764Z,14.70
2017-11-03T09:15:38.829Z,14.80
2017-11-03T09:18:07.274Z,14.90
2017-11-03T09:20:35.019Z,15.20
2017-11-03T09:23:03.034Z,15.50
2017-11-03T09:25:30.876Z,15.70
2017-11-03T09:27:59.016Z,15.90
2017-11-03T09:30:27.486Z,16.20
2017-11-03T09:32:56.188Z,16.10
2017-11-03T09:35:24.689Z,15.40
2017-11-03T09:37:53.038Z,15.20
2017-11-03T09:40:22.308Z,14.90
2017-11-03T09:42:50.816Z,14.90
2017-11-03T09:45:18.649Z,14.90
2017-11-03T09:47:47.153Z,14.90
2017-11-03T09:50:15.275Z,14.90
2017-11-03T09:52:43.797Z,14.80
2017-11-03T09:55:12.366Z,14.60
2017-11-03T09:57:40.835Z,14.50
2017-11-03T10:00:09.350Z,14.60
2017-11-03T10:02:37.837Z,14.60
2017-11-03T10:05:05.958Z,14.50
2017-11-03T10:07:34.440Z,14.40
2017-11-03T10:10:02.917Z,14.40
2017-11-03T10:12:31.309Z,14.40
2017-11-03T10:14:59.830Z,14.20
2017-11-03T10:17:28.314Z,14.20
2017-11-03T10:19:56.797Z,14.40
2017-11-03T10:22:25.343Z,14.90
2017-11-03T10:24:53.649Z,16.00
2017-11-03T10:27:22.114Z,17.70
2017-11-03T10:29:50.600Z,19.30
2017-11-03T10:32:19.105Z,20.70
2017-11-03T10:34:47.596Z,20.50
2017-11-03T10:37:16.042Z,19.60
2017-11-03T10:39:44.547Z,18.40
2017-11-03T10:42:13.007Z,17.50
2017-11-03T10:44:41.465Z,16.70
2017-11-03T10:47:09.955Z,16.00
2017-11-03T10:49:39.311Z,15.60
2017-11-03T10:52:07.127Z,15.20
2017-11-03T10:54:35.607Z,15.10
2017-11-03T10:57:04.082Z,15.00
2017-11-03T10:59:32.550Z,14.70
2017-11-03T11:02:01.075Z,14.80
2017-11-03T11:04:29.206Z,14.80
2017-11-03T11:06:57.904Z,14.60
2017-11-03T11:09:26.389Z,14.70
2017-11-03T11:11:54.881Z,15.00
2017-11-03T11:14:23.026Z,15.30
2017-11-03T11:16:51.492Z,15.50
2017-11-03T11:19:20.003Z,15.60
2017-11-03T11:21:48.221Z,15.30
2017-11-03T11:24:16.694Z,15.20
2017-11-03T11:26:45.144Z,15.00
2017-11-03T11:29:13.461Z,15.10
2017-11-03T11:31:42.004Z,15.40
2017-11-03T11:34:11.217Z,15.50
2017-11-03T11:36:39.991Z,15.50
2017-11-03T11:39:08.100Z,15.60
2017-11-03T11:41:35.846Z,15.90
2017-11-03T11:44:04.827Z,16.90
2017-11-03T11:46:32.601Z,16.90
2017-11-03T11:49:00.432Z,17.70
2017-11-03T11:51:29.008Z,18.50
2017-11-03T11:53:56.739Z,18.50
2017-11-03T11:56:25.366Z,18.70
2017-11-03T11:58:53.872Z,18.60
2017-11-03T12:01:22.561Z,18.50
2017-11-03T12:03:51.075Z,18.40
2017-11-03T12:06:18.829Z,18.40
2017-11-03T12:08:46.591Z,18.50
2017-11-03T12:11:14.750Z,18.30
2017-11-03T12:13:43.262Z,17.20
2017-11-03T12:16:11.357Z,17.10
2017-11-03T12:18:39.489Z,17.00
2017-11-03T12:21:07.252Z,16.90
2017-11-03T12:23:35.358Z,16.70
2017-11-03T12:26:03.142Z,16.50
2017-11-03T12:28:30.920Z,16.40
2017-11-03T12:30:59.673Z,16.90
2017-11-03T12:33:27.476Z,16.90
2017-11-03T12:35:55.232Z,17.90
2017-11-03T12:38:22.964Z,19.40
2017-11-03T12:40:55.550Z,20.10
2017-11-03T12:43:23.283Z,21.20
2017-11-03T12:45:51.794Z,22.80
2017-11-03T12:48:19.581Z,22.70
2017-11-03T12:50:47.694Z,23.80
2017-11-03T12:53:16.231Z,22.90
2017-11-03T12:55:44.011Z,22.80
2017-11-03T12:58:12.146Z,21.60
2017-11-03T13:00:39.897Z,20.60
2017-11-03T13:03:07.730Z,19.80
2017-11-03T13:05:35.478Z,18.70
2017-11-03T13:08:03.202Z,18.10
2017-11-03T13:10:31.338Z,17.50
2017-11-03T13:12:59.429Z,16.90
2017-11-03T13:15:28.039Z,16.80
2017-11-03T13:17:55.834Z,16.80
2017-11-03T13:20:23.448Z,16.70
2017-11-03T13:22:51.594Z,16.50
2017-11-03T13:25:19.733Z,16.40
2017-11-03T13:27:47.670Z,16.50
2017-11-03T13:30:15.463Z,16.40
2017-11-03T13:32:43.269Z,16.40
2017-11-03T13:35:11.788Z,16.30
2017-11-03T13:37:39.530Z,16.00
2017-11-03T13:40:07.921Z,15.90
2017-11-03T13:42:36.460Z,15.80
2017-11-03T13:45:04.231Z,15.80
2017-11-03T13:47:31.997Z,16.00
2017-11-03T13:50:00.113Z,16.10
2017-11-03T13:52:29.349Z,16.20
2017-11-03T13:54:57.881Z,16.20
2017-11-03T13:57:26.732Z,16.20
2017-11-03T13:59:55.170Z,16.10
2017-11-03T14:02:23.689Z,16.30
2017-11-03T14:04:51.430Z,16.20
2017-11-03T14:07:20.292Z,16.30
2017-11-03T14:09:49.603Z,16.40
2017-11-03T14:12:18.788Z,17.20
2017-11-03T14:14:47.228Z,17.20
2017-11-03T14:17:15.733Z,17.80
2017-11-03T14:19:44.194Z,18.20
2017-11-03T14:22:12.618Z,18.20
2017-11-03T14:24:41.078Z,18.00
2017-11-03T14:27:09.801Z,17.80
2017-11-03T14:29:39.016Z,16.80
2017-11-03T14:32:07.464Z,16.80
2017-11-03T14:34:35.917Z,16.60
2017-11-03T14:37:04.397Z,16.30
2017-11-03T14:39:32.841Z,15.90
2017-11-03T14:42:01.000Z,15.60
2017-11-03T14:44:30.262Z,15.10
2017-11-03T14:46:58.783Z,15.10
2017-11-03T14:49:27.207Z,14.80
2017-11-03T14:51:55.722Z,14.40
2017-11-03T14:54:24.149Z,14.20
2017-11-03T14:56:52.563Z,13.80
2017-11-03T14:59:21.004Z,13.60
2017-11-03T15:01:49.443Z,13.30
2017-11-03T15:04:17.939Z,13.10
2017-11-03T15:06:46.570Z,12.80
2017-11-03T15:09:15.066Z,12.70
2017-11-03T15:11:43.511Z,12.50
2017-11-03T15:14:12.034Z,12.20
2017-11-03T15:16:40.478Z,12.10
2017-11-03T15:19:08.958Z,11.90
2017-11-03T15:21:37.426Z,11.80
2017-11-03T15:24:06.627Z,11.40
2017-11-03T15:26:35.060Z,11.40
2017-11-03T15:29:03.788Z,11.20
2017-11-03T15:31:32.216Z,11.10
2017-11-03T15:34:00.638Z,10.80
2017-11-03T15:36:29.084Z,10.60
2017-11-03T15:38:57.526Z,10.40
2017-11-03T15:41:26.709Z,10.20
2017-11-03T15:43:55.139Z,10.20
2017-11-03T15:46:23.796Z,10.00
2017-11-03T15:48:52.222Z,9.90
2017-11-03T15:51:20.313Z,9.80
2017-11-03T15:53:48.754Z,9.60
2017-11-03T15:56:16.849Z,9.40
2017-11-03T15:58:45.266Z,9.30
2017-11-03T16:01:13.950Z,9.30
2017-11-03T16:03:43.138Z,9.30
2017-11-03T16:06:11.559Z,9.30
2017-11-03T16:08:40.758Z,9.20
2017-11-03T16:11:09.211Z,9.20
2017-11-03T16:13:38.873Z,9.10
2017-11-03T16:16:07.294Z,9.10
2017-11-03T16:18:35.998Z,9.10
2017-11-03T16:21:05.186Z,9.10
2017-11-03T16:23:33.594Z,9.00
2017-11-03T16:26:02.813Z,9.30
2017-11-03T16:28:31.242Z,9.30
2017-11-03T16:31:00.608Z,9.30
2017-11-03T16:33:29.097Z,9.50
2017-11-03T16:35:57.896Z,9.50
2017-11-03T16:38:26.359Z,9.50
2017-11-03T16:40:54.915Z,9.60
2017-11-03T16:43:24.162Z,9.70
2017-11-03T16:45:51.950Z,9.70
2017-11-03T16:48:20.492Z,9.80
2017-11-03T16:50:48.444Z,9.80
2017-11-03T16:53:16.931Z,9.80
2017-11-03T16:55:45.057Z,9.80
2017-11-03T16:58:13.566Z,9.90
2017-11-03T17:00:41.974Z,9.90
2017-11-03T17:03:10.419Z,9.80
2017-11-03T17:05:38.548Z,9.80
2017-11-03T17:08:07.042Z,9.70
2017-11-03T17:10:35.471Z,9.60
2017-11-03T17:13:03.548Z,9.50
2017-11-03T17:15:32.021Z,9.30
2017-11-03T17:18:00.819Z,9.20
2017-11-03T17:20:30.018Z,9.00
2017-11-03T17:22:58.751Z,9.00
2017-11-03T17:25:26.990Z,8.80
2017-11-03T17:27:55.718Z,8.80
2017-11-03T17:30:24.160Z,8.70
2017-11-03T17:32:52.580Z,8.60
2017-11-03T17:35:21.038Z,8.60
2017-11-03T17:37:50.538Z,8.50
2017-11-03T17:40:18.982Z,8.50
2017-11-03T17:42:47.691Z,8.60
2017-11-03T17:45:16.405Z,8.60
2017-11-03T17:47:45.907Z,8.60
2017-11-03T17:50:14.396Z,8.60
2017-11-03T17:52:42.963Z,8.70
2017-11-03T17:55:12.518Z,8.70
2017-11-03T17:57:41.213Z,8.70
2017-11-03T18:00:09.380Z,8.80
2017-11-03T18:02:38.188Z,8.80
2017-11-03T18:05:06.604Z,8.80
2017-11-03T18:07:35.359Z,8.70
2017-11-03T18:10:03.958Z,8.70
2017-11-03T18:12:32.403Z,8.80
2017-11-03T18:15:00.824Z,8.70
2017-11-03T18:17:29.526Z,8.60
2017-11-03T18:19:59.086Z,8.60
2017-11-03T18:22:27.893Z,8.60
2017-11-03T18:24:56.844Z,8.70
2017-11-03T18:27:25.574Z,8.60
2017-11-03T18:29:54.415Z,8.60
2017-11-03T18:32:23.485Z,8.70
2017-11-03T18:34:52.355Z,8.60
2017-11-03T18:37:21.292Z,8.70
2017-11-03T18:39:50.034Z,8.60
2017-11-03T18:42:18.765Z,8.60
2017-11-03T18:44:49.540Z,8.70
2017-11-03T18:47:19.568Z,8.70
2017-11-03T18:49:49.657Z,8.70
2017-11-03T18:52:20.598Z,8.70
2017-11-03T18:54:50.028Z,8.70
2017-11-03T18:57:20.049Z,8.90
2017-11-03T18:59:49.604Z,8.80
2017-11-03T19:02:20.854Z,8.80
2017-11-03T19:04:49.781Z,8.80
2017-11-03T19:07:18.346Z,8.90
2017-11-03T19:09:47.230Z,9.00
2017-11-03T19:12:16.112Z,9.00
2017-11-03T19:14:45.189Z,9.00
2017-11-03T19:17:14.696Z,9.00
2017-11-03T19:19:43.176Z,9.00
2017-11-03T19:22:12.671Z,9.00
2017-11-03T19:24:41.688Z,9.10
2017-11-03T19:27:10.203Z,9.10
2017-11-03T19:29:38.464Z,9.20
2017-11-03T19:32:07.258Z,9.20
2017-11-03T19:34:36.030Z,9.10
2017-11-03T19:37:04.817Z,9.10
2017-11-03T19:39:35.549Z,9.10
2017-11-03T19:42:04.710Z,9.10
2017-11-03T19:44:33.655Z,9.10
2017-11-03T19:47:02.147Z,9.00
2017-11-03T19:49:31.524Z,9.10
2017-11-03T19:51:59.759Z,9.10
2017-11-03T19:54:28.555Z,9.20
2017-11-03T19:56:57.941Z,9.20
2017-11-03T19:59:26.784Z,9.10
2017-11-03T20:01:55.320Z,9.20
2017-11-03T20:04:23.905Z,9.10
2017-11-03T20:06:52.540Z,9.10
2017-11-03T20:09:22.083Z,9.10
2017-11-03T20:11:50.850Z,9.10
2017-11-03T20:14:19.381Z,9.20
2017-11-03T20:16:49.593Z,9.10
2017-11-03T20:19:18.340Z,9.10
2017-11-03T20:21:47.137Z,9.10
2017-11-03T20:24:15.628Z,9.00
2017-11-03T20:26:44.516Z,9.00
2017-11-03T20:29:13.792Z,9.00
2017-11-03T20:31:44.142Z,9.00
2017-11-03T20:34:13.210Z,9.00
2017-11-03T20:36:42.256Z,9.10
2017-11-03T20:39:10.872Z,9.10
2017-11-03T20:41:39.673Z,9.00
2017-11-03T20:44:09.480Z,9.00
2017-11-03T20:46:38.288Z,9.00
2017-11-03T20:49:07.349Z,9.00
2017-11-03T20:51:36.141Z,9.10
2017-11-03T20:54:05.700Z,9.00
2017-11-03T20:56:36.447Z,8.90
2017-11-03T20:59:04.985Z,8.90
2017-11-03T21:01:33.727Z,8.70
2017-11-03T21:04:02.497Z,8.60
2017-11-03T21:06:31.302Z,8.30
2017-11-03T21:09:01.898Z,8.30
2017-11-03T21:11:31.406Z,8.40
2017-11-03T21:14:00.961Z,8.50
2017-11-03T21:16:30.515Z,8.40
2017-11-03T21:19:00.285Z,8.40
2017-11-03T21:21:28.830Z,8.40
2017-11-03T21:23:57.587Z,8.40
2017-11-03T21:26:26.384Z,8.40
2017-11-03T21:28:55.184Z,8.40
2017-11-03T21:31:24.016Z,8.50
2017-11-03T21:33:52.779Z,8.50
2017-11-03T21:36:21.878Z,8.50
2017-11-03T21:38:50.675Z,8.50
2017-11-03T21:41:20.750Z,8.50
2017-11-03T21:43:49.982Z,8.60
2017-11-03T21:46:18.756Z,8.60
2017-11-03T21:48:47.516Z,8.70
2017-11-03T21:51:17.056Z,8.70
2017-11-03T21:53:46.575Z,8.70
2017-11-03T21:56:15.536Z,8.70
2017-11-03T21:58:44.292Z,8.70
2017-11-03T22:01:13.023Z,8.80
2017-11-03T22:03:41.728Z,8.70
2017-11-03T22:06:11.271Z,8.80
2017-11-03T22:08:40.003Z,8.80
2017-11-03T22:11:08.820Z,8.70
2017-11-03T22:13:37.590Z,8.70
2017-11-03T22:16:07.082Z,8.70
2017-11-03T22:18:35.837Z,8.70
2017-11-03T22:21:04.793Z,8.50
2017-11-03T22:23:34.307Z,8.50
2017-11-03T22:26:03.891Z,8.50
2017-11-03T22:28:33.379Z,8.50
2017-11-03T22:31:02.114Z,8.50
2017-11-03T22:33:30.880Z,8.50
2017-11-03T22:35:59.615Z,8.50
2017-11-03T22:38:28.415Z,8.40
2017-11-03T22:40:57.243Z,8.30
2017-11-03T22:43:26.898Z,8.10
2017-11-03T22:45:55.707Z,8.10
2017-11-03T22:48:24.450Z,7.90
2017-11-03T22:50:54.079Z,7.50
2017-11-03T22:53:22.871Z,7.50
2017-11-03T22:55:51.638Z,7.30
2017-11-03T22:58:20.371Z,7.20
2017-11-03T23:00:49.123Z,7.10
2017-11-03T23:03:18.242Z,7.00
2017-11-03T23:05:46.967Z,6.90
2017-11-03T23:08:15.750Z,6.80
2017-11-03T23:10:44.505Z,6.60
2017-11-03T23:13:13.966Z,6.50
2017-11-03T23:15:42.734Z,6.50
2017-11-03T23:18:11.438Z,6.40
2017-11-03T23:20:40.561Z,6.30
2017-11-03T23:23:09.409Z,6.20
2017-11-03T23:25:38.958Z,6.10
2017-11-03T23:28:07.707Z,6.10
2017-11-03T23:30:36.434Z,6.10
2017-11-03T23:33:05.757Z,6.00
2017-11-03T23:35:34.521Z,6.00
2017-11-03T23:38:03.570Z,5.90
2017-11-03T23:40:32.308Z,5.80
2017-11-03T23:43:01.282Z,5.70
2017-11-03T23:45:31.310Z,5.60
2017-11-03T23:48:00.806Z,5.50
2017-11-03T23:50:29.506Z,5.50
2017-11-03T23:52:58.807Z,5.40
2017-11-03T23:55:28.387Z,5.40
2017-11-03T23:57:57.082Z,5.40
